Brightlingsea, United Kingdom
Current Conditions -  °F | °C
As of 9:50 AM on Monday 22 Dec 2014 (Local Time) from EGUW Reporting Station
Broken Clouds Broken Clouds  
Wind Chill: 54°   Ceiling: 22000
Heat Index: 54°   Visibility: 6mi
Dew Point: 46°   Wind: 29mph
Humidity: 77%   Direction: 250°WSW
Pressure: 29.94"   Gusts: NA
Location:  51.81°N, 1.02°E
Report Text: EGUW 220950Z 25025KT 9999 SCT024 BKN220 12/08 Q1014 WHT NOSIG
Loading
Personal Weather Stations






























Interactive Weather Map New forecast layout! Learn more

10-Day Weather Forecast

Advertisements
Track Severe Weather on mobile